• Join FlightAware (Why Join?)
  • Login
  • US Flag 
04:51PM EDT


 

Airport Tracker/Info


-or-


 

Live Flight TrackerFlight Track Log ✈ N469S ✈ 23-Apr-2013 ✈ CYTZ - KIND

Flight Track Log - Related Links

Times and Time Zones

All times are in EDT time to prevent confusion due to time zone crossing. See the N469S flight status page for this flight to view local times or setup timezone preferences in your user account.

Time Position Orientation Groundspeed Altitude Reporting Facility
EDT Latitude Longitude Course Direction KTS MPH feet Rate Location/Type
12:21PM 43.6333 -79.3333 236° Southwest 110 127 1,600  Level Toronto Center
12:22PM 43.6167 -79.2833 115° Southeast 130 150 2,500 1,020 Climbing Toronto Center
12:23PM 43.6000 -79.2667 144° Southeast 120 138 3,700 1,080 Climbing Toronto Center
12:24PM 43.5667 -79.2667 180° South 130 150 4,700 960 Climbing Toronto Center
12:25PM 43.3035 -79.8510 224° Southwest  Level FlightAware Approximate
12:25PM 43.5500 -79.3167 245° Southwest 130 150 5,700  Level Toronto Center
12:26PM 43.2702 -79.8953 224° Southwest  Level FlightAware Approximate
12:26PM 43.5167 -79.3333 200° South 130 150 6,300  Level Toronto Center
12:27PM 43.2432 -79.9470 236° Southwest  Level FlightAware Approximate
12:27PM 43.4833 -79.3833 227° Southwest 150 173 6,900  Level Toronto Center
12:28PM 43.4500 -79.4333 227° Southwest 160 184 7,000  Climbing Toronto Center
12:29PM 43.4167 -79.4667 216° Southwest 180 207 7,000 180 Level Toronto Center
12:30PM 43.3833 -79.5167 227° Southwest 170 196 7,400 300 Climbing Toronto Center
12:31PM 43.3500 -79.5667 227° Southwest 170 196 7,700 300 Climbing Toronto Center
12:32PM 43.3333 -79.6333 251° West 170 196 8,000 300 Climbing Toronto Center
12:33PM 43.3000 -79.6833 228° Southwest 160 184 8,400 300 Climbing Toronto Center
12:34PM 43.2833 -79.7167 236° Southwest 160 184 8,700 300 Climbing Toronto Center
12:35PM 43.2500 -79.8000 241° Southwest 170 196 9,000 300 Climbing Toronto Center
12:36PM 43.2333 -79.8333 236° Southwest 160 184 9,300 300 Climbing Toronto Center
12:37PM 43.2000 -79.8833 228° Southwest 160 184 9,600 300 Climbing Toronto Center
12:38PM 43.1667 -79.9333 228° Southwest 160 184 9,900 120 Climbing Toronto Center
12:39PM 43.1500 -80.0000 251° West 170 196 9,900  Level Toronto Center
12:40PM 43.1167 -80.0500 228° Southwest 180 207 9,900  Level Toronto Center
12:41PM 43.1000 -80.1167 251° West 180 207 9,900  Level Toronto Center
12:42PM 43.0667 -80.1500 216° Southwest 180 207 9,900  Level Toronto Center
12:43PM 43.0333 -80.2000 228° Southwest 170 196 9,900  Level Toronto Center
12:44PM 43.0167 -80.2667 251° West 180 207 9,900  Level Toronto Center
12:45PM 42.9833 -80.3167 228° Southwest 180 207 9,900  Level Toronto Center
12:46PM 42.9500 -80.3833 236° Southwest 180 207 9,900  Level Toronto Center
12:47PM 42.9333 -80.4333 246° West 180 207 9,900  Level Toronto Center
12:48PM 42.9000 -80.4833 228° Southwest 170 196 9,900  Level Toronto Center
12:49PM 42.8667 -80.5500 236° Southwest 170 196 9,900  Level Toronto Center
12:50PM 42.8603 -80.6003 260° West 179 206 9,900  Level Cleveland Center
12:51PM 42.8353 -80.6511 236° Southwest 179 206 9,900  Level Cleveland Center
12:52PM 42.8061 -80.7050 234° Southwest 179 206 9,900  Level Cleveland Center
12:53PM 42.7769 -80.7642 236° Southwest 179 206 9,900  Level Cleveland Center
12:54PM 42.7475 -80.8178 233° Southwest 174 200 9,900  Level Cleveland Center
12:55PM 42.7183 -80.8686 232° Southwest 174 200 9,900  Level Cleveland Center
12:56PM 42.6869 -80.9136 227° Southwest 174 200 9,900  Level Cleveland Center
12:57PM 42.6472 -80.9503 214° Southwest 174 200 9,900  Level Cleveland Center
12:58PM 42.6117 -80.9894 219° Southwest 174 200 9,900  Level Cleveland Center
12:59PM 42.5719 -81.0258 214° Southwest 174 200 9,900  Level Cleveland Center
01:00PM 42.5322 -81.0622 214° Southwest 174 200 9,900  Level Cleveland Center
01:01PM 42.4944 -81.0986 215° Southwest 174 200 9,900  Level Cleveland Center
01:02PM 42.4567 -81.1375 217° Southwest 174 200 9,900  Level Cleveland Center
01:03PM 42.4150 -81.1736 213° Southwest 174 200 9,900  Level Cleveland Center
01:04PM 42.3814 -81.2072 216° Southwest 179 206 9,900  Level Cleveland Center
01:05PM 42.3417 -81.2433 214° Southwest 174 200 9,900  Level Cleveland Center
01:06PM 42.3039 -81.2822 217° Southwest 174 200 9,900  Level Cleveland Center
01:07PM 42.2639 -81.3183 214° Southwest 174 200 9,900  Level Cleveland Center
01:08PM 42.2261 -81.3542 215° Southwest 174 200 9,900  Level Cleveland Center
01:09PM 42.1864 -81.3931 216° Southwest 174 200 9,900  Level Cleveland Center
01:10PM 42.1486 -81.4317 217° Southwest 174 200 9,900  Level Cleveland Center
01:11PM 42.1192 -81.4536 209° Southwest 168 193 9,900  Level Cleveland Center
01:11PM 42.1044 -81.4703 220° Southwest 174 200 9,900  Level Cleveland Center
01:11PM 42.0961 -81.4814 225° Southwest 172 198 9,900  Level Cleveland Center
01:12PM 42.0667 -81.5061 212° Southwest 174 200 9,900  Level Cleveland Center
01:12PM 42.0542 -81.5200 220° Southwest 172 198 9,900  Level Cleveland Center
01:13PM 42.0267 -81.5447 214° Southwest 174 200 9,900  Level Cleveland Center
01:13PM 42.0164 -81.5558 219° Southwest 172 198 9,900  Level Cleveland Center
01:14PM 41.9889 -81.5778 211° Southwest 174 200 9,900  Level Cleveland Center
01:14PM 41.9742 -81.5942 220° Southwest 170 196 9,900  Level Cleveland Center
01:15PM 41.9492 -81.6161 213° Southwest 174 200 9,900  Level Cleveland Center
01:15PM 41.9322 -81.6353 220° Southwest 170 196 9,900  Level Cleveland Center
01:16PM 41.9111 -81.6517 210° Southwest 174 200 9,900  Level Cleveland Center
01:16PM 41.8922 -81.6711 217° Southwest 170 196 9,900  Level Cleveland Center
01:17PM 41.8733 -81.6903 217° Southwest 174 200 9,900  Level Cleveland Center
01:17PM 41.8586 -81.7039 215° Southwest 170 196 9,900  Level Cleveland Center
01:18PM 41.8333 -81.7258 213° Southwest 174 200 9,900  Level Cleveland Center
01:18PM 41.8186 -81.7422 220° Southwest 171 197 9,900 -300 Level Cleveland Center
01:19PM 41.7872 -81.7417 179° South 174 200 9,600 -900 Descending Cleveland Center
01:19PM 41.7581 -81.7411 179° South 204 235 8,900 -1,320 Descending Cleveland Center
01:20PM 41.7311 -81.7378 175° South 193 222 8,300 -1,260 Descending Cleveland Center
01:20PM 41.7122 -81.7375 179° South 205 236 7,900 -1,140 Descending Cleveland Center
01:21PM 41.6519 -81.7392 181° South 208 239 6,800 -1,140 Descending Cleveland Center
01:22PM 41.5978 -81.7411 182° South 192 221 5,700 -1,200 Descending Cleveland Center
01:23PM 41.5519 -81.7375 177° South 192 221 4,500 -1,260 Descending Cleveland Center
01:24PM 41.4933 -81.7392 181° South 155 178 3,100 -720 Descending Cleveland Center
01:25PM 41.4683 -81.7581 210° Southwest 101 116 3,100 -420 Level Cleveland Center
01:26PM 41.4450 -81.7908 226° Southwest 108 124 2,300 -780 Descending Cleveland Center
01:27PM 41.4281 -81.8211 233° Southwest 101 116 1,500  Descending Cleveland Center
01:29PM 41.4171 -81.8674 253° West  Level FlightAware Approximate
01:36PM 41.3094 -82.1688 234° Southwest  Level Estimated
01:37PM 41.2910 -82.2096 239° Southwest  Level FlightAware Approximate
01:38PM 41.2725 -82.2504 239° Southwest  Level FlightAware Approximate
01:39PM 41.2540 -82.2912 239° Southwest  Level FlightAware Approximate
01:40PM 41.2355 -82.3320 239° Southwest  Level FlightAware Approximate
01:41PM 41.2170 -82.3727 239° Southwest  Level FlightAware Approximate
01:42PM 41.1985 -82.4134 239° Southwest  Level FlightAware Approximate
01:43PM 41.1800 -82.4541 239° Southwest  Level FlightAware Approximate
01:44PM 41.1647 -82.4971 234° Southwest  Level Estimated
01:45PM 41.1433 -82.5352 233° Southwest  Level FlightAware Approximate
01:46PM 41.1219 -82.5733 233° Southwest  Level FlightAware Approximate
01:47PM 41.1005 -82.6114 233° Southwest  Level FlightAware Approximate
01:48PM 41.0790 -82.6494 233° Southwest  Level FlightAware Approximate
01:49PM 41.0576 -82.6874 233° Southwest  Level FlightAware Approximate
01:50PM 41.0362 -82.7254 233° Southwest  Level FlightAware Approximate
01:51PM 41.0147 -82.7634 233° Southwest  Level FlightAware Approximate
01:52PM 40.9932 -82.8013 233° Southwest  Level FlightAware Approximate
01:53PM 40.9717 -82.8392 233° Southwest  Level FlightAware Approximate
01:54PM 40.9502 -82.8771 233° Southwest  Level FlightAware Approximate
01:55PM 40.9287 -82.9150 233° Southwest  Level FlightAware Approximate
01:56PM 40.9072 -82.9529 233° Southwest  Level FlightAware Approximate
01:57PM 40.8856 -82.9907 233° Southwest  Level FlightAware Approximate
01:58PM 40.8641 -83.0285 233° Southwest  Level FlightAware Approximate
01:59PM 40.8425 -83.0662 233° Southwest  Level FlightAware Approximate
02:00PM 40.8209 -83.1040 233° Southwest  Level FlightAware Approximate
02:01PM 40.7994 -83.1417 233° Southwest  Level FlightAware Approximate
02:02PM 40.7778 -83.1794 233° Southwest  Level FlightAware Approximate
02:03PM 40.7561 -83.2171 233° Southwest  Level FlightAware Approximate
02:04PM 40.7345 -83.2547 233° Southwest  Level FlightAware Approximate
02:05PM 40.7129 -83.2923 233° Southwest  Level FlightAware Approximate
02:06PM 40.6912 -83.3299 233° Southwest  Level FlightAware Approximate
02:07PM 40.6696 -83.3675 233° Southwest  Level FlightAware Approximate
02:08PM 40.6479 -83.4051 233° Southwest  Level FlightAware Approximate
02:09PM 40.6262 -83.4426 233° Southwest  Level FlightAware Approximate
02:10PM 40.6045 -83.4801 233° Southwest  Level FlightAware Approximate
02:11PM 40.5914 -83.5239 230° Southwest  Level Estimated
02:12PM 40.5672 -83.5586 227° Southwest  Level FlightAware Approximate
02:13PM 40.5430 -83.5934 227° Southwest  Level FlightAware Approximate
02:14PM 40.5188 -83.6280 227° Southwest  Level FlightAware Approximate
02:15PM 40.4945 -83.6627 227° Southwest  Level FlightAware Approximate
02:16PM 40.4703 -83.6973 227° Southwest  Level FlightAware Approximate
02:17PM 40.4581 -83.7415 235° Southwest  Level Estimated
02:18PM 40.4360 -83.7785 232° Southwest  Level FlightAware Approximate
02:19PM 40.4139 -83.8155 232° Southwest  Level FlightAware Approximate
02:20PM 40.3918 -83.8525 232° Southwest  Level FlightAware Approximate
02:21PM 40.3697 -83.8895 232° Southwest  Level FlightAware Approximate
02:22PM 40.3476 -83.9264 232° Southwest  Level FlightAware Approximate
02:23PM 40.3254 -83.9633 232° Southwest  Level FlightAware Approximate
02:24PM 40.3033 -84.0002 232° Southwest  Level FlightAware Approximate
02:25PM 40.2924 -84.0449 267° West  Level Estimated
02:25PM 41.3831 -81.9281 251° West 112 129 2,700  Level Cleveland Center
02:26PM 40.2896 -84.0916 266° West  Level FlightAware Approximate
02:26PM 41.3636 -81.9803 244° Southwest 121 139 4,200  Level Cleveland Center
02:27PM 40.2868 -84.1384 266° West  Level FlightAware Approximate
02:27PM 41.3506 -82.0186 246° West 127 146 5,500  Level Cleveland Center
02:28PM 40.2840 -84.1852 266° West  Level FlightAware Approximate
02:28PM 41.3356 -82.0569 242° Southwest 120 138 6,300  Level Cleveland Center
02:29PM 40.2812 -84.2320 265° West  Level FlightAware Approximate
02:29PM 41.3203 -82.1011 245° Southwest 120 138 7,200  Level Cleveland Center
02:30PM 41.3053 -82.1394 242° Southwest 120 138 8,200 900 Climbing Cleveland Center
02:31PM 41.2922 -82.1778 246° West 120 138 9,100 840 Climbing Cleveland Center
02:32PM 41.2769 -82.2161 242° Southwest 120 138 9,900 720 Climbing Cleveland Center
02:33PM 41.2619 -82.2597 245° Southwest 125 144 10,600 300 Climbing Cleveland Center
02:34PM 41.2422 -82.3144 244° Southwest 149 171 10,500 -60 Descending Cleveland Center
02:35PM 41.2228 -82.3692 245° Southwest 166 191 10,500  Level Cleveland Center
02:36PM 41.2008 -82.4267 243° Southwest 172 198 10,500  Level Cleveland Center
02:37PM 41.1789 -82.4894 245° Southwest 172 198 10,500  Level Cleveland Center
02:38PM 41.1592 -82.5494 246° West 172 198 10,500  Level Cleveland Center
02:39PM 41.1375 -82.6042 242° Southwest 167 192 10,500  Level Cleveland Center
02:40PM 41.1156 -82.6586 242° Southwest 173 199 10,500  Level Cleveland Center
02:41PM 41.0958 -82.7131 244° Southwest 173 199 10,500  Level Cleveland Center
02:42PM 41.0739 -82.7700 243° Southwest 173 199 10,500  Level Cleveland Center
02:43PM 41.0542 -82.8244 244° Southwest 173 199 10,500  Level Cleveland Center
02:44PM 41.0342 -82.8789 244° Southwest 173 199 10,500  Level Cleveland Center
02:45PM 41.0142 -82.9361 245° Southwest 174 200 10,500  Level Cleveland Center
02:46PM 40.9922 -82.9903 242° Southwest 174 200 10,500  Level Cleveland Center
02:48PM 40.9573 -83.0356 224° Southwest  Level FlightAware Approximate
02:55PM 40.7781 -83.2672 224° Southwest  Level FlightAware Approximate